Airfield :







YOU CAN JOIN US ON...

 
LOGIN :

Register | Disclaimer

   EN    FR    IT 

 









Legend :    VFR   Marginal VFR   IFR   Intensive IFR   Very Intensive IFR
Visi :
Ceiling :
>= 8 km
>= 3000ft
5 to 8 km
1000 to 3000 ft
1500m to 5 km
500 to 1000 ft
800 to 1500m
200 to 500 ft
< 800m
< 200 ft
Symbols :   Thunderstorms  Fog  Heavy snow  Heavy precipitations  Wind > 20 kt






- Airport Elevation : 1808 ft
- IATA code : YWK


CYWK - Wabush

CURRENT METAR :
  • 192300Z 29018G26KT 2SM -SN DRSN OVC020 M21/M25 A2952 RMK SC8 SLP051

EXPIRED METARs :
  • 192236Z 30019G30KT 1 1/2SM -SN DRSN OVC024 M20/M25 A2949 RMK SC8 SLP041
  • 192200Z 30019G32KT 4SM -SN DRSN OVC028 M18/M24 A2946 RMK SC8 PRESRR SLP030
  • 192100Z 31020G28KT 6SM -SN DRSN BKN020 OVC028 M16/M20 A2941 RMK SC6SC2 SLP008
  • 192057Z 30019G26KT 6SM -SN DRSN BKN022 OVC028 M15/M19 A2941 RMK SC6SC2 SLP007
  • 192049Z 30020G27KT 3/4SM -SN DRSN OVC022 M15/M19 A2940 RMK SC8 SLP005

TAF TAF CYWK
Valid from the 19 at 20:00 until the 20 at 08:00 UTC


191940Z 1920/2008 30018G28KT 6SM -SN SCT020 OVC080
TEMPO 1920/1923 11/2SM -SN BLSN OVC020
FM192300 30015G25KT P6SM BKN030
TEMPO 1923/2008 3SM -SN RMK NXT FCST BY 200200Z



MET'MAP, your aeronautical weather chart ! - Copyright ORBIFLY December 2007 - Disclaimer

ORBIFLY MET'MAP TEAM :

Programming & Development : Alexandra Zaïnal
Concept & original design : Baudouin d'Aumeries
Assistance for programming : Marc-Olivier Méhu
Technical & hardware support : Manuel Goepfert

Contact : metmap@orbifly.com




SOURCES & CREDITS :

   NOAA